sensor_id;sensor_type;location;lat;lon;timestamp;P1;durP1;ratioP1;P2;durP2;ratioP2
3085;SDS011;52812;48.960;9.108;2024-01-06T00:02:14;23.47;;;13.40;;
3085;SDS011;52812;48.960;9.108;2024-01-06T00:04:40;20.33;;;13.50;;
3085;SDS011;52812;48.960;9.108;2024-01-06T00:07:05;25.23;;;13.93;;
3085;SDS011;52812;48.960;9.108;2024-01-06T00:09:31;19.47;;;13.33;;
3085;SDS011;52812;48.960;9.108;2024-01-06T00:11:57;19.47;;;13.60;;
3085;SDS011;52812;48.960;9.108;2024-01-06T00:14:22;24.10;;;14.10;;
3085;SDS011;52812;48.960;9.108;2024-01-06T00:16:48;21.13;;;13.10;;
3085;SDS011;52812;48.960;9.108;2024-01-06T00:19:14;20.80;;;13.07;;
3085;SDS011;52812;48.960;9.108;2024-01-06T00:21:39;18.80;;;13.23;;
3085;SDS011;52812;48.960;9.108;2024-01-06T00:24:05;18.80;;;12.60;;
3085;SDS011;52812;48.960;9.108;2024-01-06T00:26:31;20.07;;;12.27;;
3085;SDS011;52812;48.960;9.108;2024-01-06T00:28:56;18.80;;;11.83;;
3085;SDS011;52812;48.960;9.108;2024-01-06T00:31:22;18.17;;;11.80;;
3085;SDS011;52812;48.960;9.108;2024-01-06T00:33:48;17.90;;;10.90;;
3085;SDS011;52812;48.960;9.108;2024-01-06T00:36:13;13.67;;;9.90;;
3085;SDS011;52812;48.960;9.108;2024-01-06T00:38:39;21.50;;;10.13;;
3085;SDS011;52812;48.960;9.108;2024-01-06T00:41:04;14.40;;;9.90;;
3085;SDS011;52812;48.960;9.108;2024-01-06T00:43:30;15.63;;;10.33;;
3085;SDS011;52812;48.960;9.108;2024-01-06T00:45:56;15.20;;;10.93;;
3085;SDS011;52812;48.960;9.108;2024-01-06T00:48:21;14.70;;;9.47;;
3085;SDS011;52812;48.960;9.108;2024-01-06T00:50:47;12.83;;;9.60;;
3085;SDS011;52812;48.960;9.108;2024-01-06T00:53:12;18.10;;;11.30;;
3085;SDS011;52812;48.960;9.108;2024-01-06T00:55:38;18.33;;;10.23;;
3085;SDS011;52812;48.960;9.108;2024-01-06T00:58:04;17.27;;;11.50;;
3085;SDS011;52812;48.960;9.108;2024-01-06T01:00:30;19.03;;;10.90;;
3085;SDS011;52812;48.960;9.108;2024-01-06T01:02:55;17.17;;;10.67;;
3085;SDS011;52812;48.960;9.108;2024-01-06T01:05:22;14.53;;;10.03;;
3085;SDS011;52812;48.960;9.108;2024-01-06T01:07:47;13.70;;;9.33;;
3085;SDS011;52812;48.960;9.108;2024-01-06T01:10:13;13.73;;;9.97;;
3085;SDS011;52812;48.960;9.108;2024-01-06T01:12:38;14.03;;;8.73;;
3085;SDS011;52812;48.960;9.108;2024-01-06T01:15:04;20.43;;;9.57;;
3085;SDS011;52812;48.960;9.108;2024-01-06T01:17:30;14.20;;;9.40;;
3085;SDS011;52812;48.960;9.108;2024-01-06T01:19:56;14.93;;;9.00;;
3085;SDS011;52812;48.960;9.108;2024-01-06T01:22:21;13.33;;;8.00;;
3085;SDS011;52812;48.960;9.108;2024-01-06T01:24:47;9.57;;;6.90;;
3085;SDS011;52812;48.960;9.108;2024-01-06T01:27:13;8.73;;;6.90;;
3085;SDS011;52812;48.960;9.108;2024-01-06T01:29:38;13.10;;;7.60;;
3085;SDS011;52812;48.960;9.108;2024-01-06T01:32:04;11.73;;;8.30;;
3085;SDS011;52812;48.960;9.108;2024-01-06T01:34:30;10.60;;;7.10;;
3085;SDS011;52812;48.960;9.108;2024-01-06T01:36:56;11.97;;;6.77;;
3085;SDS011;52812;48.960;9.108;2024-01-06T01:39:21;8.70;;;5.70;;
3085;SDS011;52812;48.960;9.108;2024-01-06T01:41:47;7.97;;;5.83;;
3085;SDS011;52812;48.960;9.108;2024-01-06T01:44:13;8.40;;;5.47;;
3085;SDS011;52812;48.960;9.108;2024-01-06T01:46:38;8.87;;;5.53;;
3085;SDS011;52812;48.960;9.108;2024-01-06T01:49:04;9.33;;;6.70;;
3085;SDS011;52812;48.960;9.108;2024-01-06T01:51:31;8.90;;;6.50;;
3085;SDS011;52812;48.960;9.108;2024-01-06T01:53:59;10.03;;;6.40;;
3085;SDS011;52812;48.960;9.108;2024-01-06T01:56:30;10.47;;;6.37;;
3085;SDS011;52812;48.960;9.108;2024-01-06T01:58:59;7.77;;;6.03;;
3085;SDS011;52812;48.960;9.108;2024-01-06T02:01:31;8.77;;;6.40;;
3085;SDS011;52812;48.960;9.108;2024-01-06T02:03:57;9.53;;;6.33;;
3085;SDS011;52812;48.960;9.108;2024-01-06T02:06:23;9.67;;;7.30;;
3085;SDS011;52812;48.960;9.108;2024-01-06T02:08:48;11.00;;;7.80;;
3085;SDS011;52812;48.960;9.108;2024-01-06T02:11:14;15.27;;;9.20;;
3085;SDS011;52812;48.960;9.108;2024-01-06T02:13:40;12.30;;;9.77;;
3085;SDS011;52812;48.960;9.108;2024-01-06T02:16:05;16.30;;;9.73;;
3085;SDS011;52812;48.960;9.108;2024-01-06T02:18:31;13.87;;;10.30;;
3085;SDS011;52812;48.960;9.108;2024-01-06T02:20:58;16.20;;;10.10;;
3085;SDS011;52812;48.960;9.108;2024-01-06T02:23:26;15.50;;;8.93;;
3085;SDS011;52812;48.960;9.108;2024-01-06T02:25:52;14.73;;;8.90;;
3085;SDS011;52812;48.960;9.108;2024-01-06T02:28:18;12.50;;;8.17;;
3085;SDS011;52812;48.960;9.108;2024-01-06T02:30:43;14.67;;;8.23;;
3085;SDS011;52812;48.960;9.108;2024-01-06T02:33:09;10.60;;;7.20;;
3085;SDS011;52812;48.960;9.108;2024-01-06T02:35:35;12.50;;;7.20;;
3085;SDS011;52812;48.960;9.108;2024-01-06T02:38:00;8.27;;;6.87;;
3085;SDS011;52812;48.960;9.108;2024-01-06T02:40:26;9.63;;;6.47;;
3085;SDS011;52812;48.960;9.108;2024-01-06T02:42:52;11.07;;;6.30;;
3085;SDS011;52812;48.960;9.108;2024-01-06T02:45:18;9.23;;;6.50;;
3085;SDS011;52812;48.960;9.108;2024-01-06T02:47:43;8.50;;;6.00;;
3085;SDS011;52812;48.960;9.108;2024-01-06T02:50:09;9.80;;;6.87;;
3085;SDS011;52812;48.960;9.108;2024-01-06T02:52:35;10.27;;;6.07;;
3085;SDS011;52812;48.960;9.108;2024-01-06T02:55:00;7.77;;;6.00;;
3085;SDS011;52812;48.960;9.108;2024-01-06T02:57:29;10.67;;;5.90;;
3085;SDS011;52812;48.960;9.108;2024-01-06T02:59:56;7.70;;;6.30;;
3085;SDS011;52812;48.960;9.108;2024-01-06T03:02:22;10.17;;;6.00;;
3085;SDS011;52812;48.960;9.108;2024-01-06T03:04:47;9.40;;;6.30;;
3085;SDS011;52812;48.960;9.108;2024-01-06T03:07:13;10.73;;;6.30;;
3085;SDS011;52812;48.960;9.108;2024-01-06T03:09:39;11.37;;;6.40;;
3085;SDS011;52812;48.960;9.108;2024-01-06T03:12:05;8.60;;;5.60;;
3085;SDS011;52812;48.960;9.108;2024-01-06T03:14:33;8.37;;;5.57;;
3085;SDS011;52812;48.960;9.108;2024-01-06T03:16:59;8.73;;;6.27;;
3085;SDS011;52812;48.960;9.108;2024-01-06T03:19:25;10.80;;;5.97;;
3085;SDS011;52812;48.960;9.108;2024-01-06T03:21:52;8.40;;;6.50;;
3085;SDS011;52812;48.960;9.108;2024-01-06T03:24:18;11.40;;;7.37;;
3085;SDS011;52812;48.960;9.108;2024-01-06T03:26:44;12.37;;;8.77;;
3085;SDS011;52812;48.960;9.108;2024-01-06T03:29:10;9.90;;;6.50;;
3085;SDS011;52812;48.960;9.108;2024-01-06T03:31:35;11.07;;;6.80;;
3085;SDS011;52812;48.960;9.108;2024-01-06T03:34:01;11.43;;;7.50;;
3085;SDS011;52812;48.960;9.108;2024-01-06T03:36:26;15.50;;;8.77;;
3085;SDS011;52812;48.960;9.108;2024-01-06T03:38:52;10.47;;;8.10;;
3085;SDS011;52812;48.960;9.108;2024-01-06T03:41:18;10.37;;;6.73;;
3085;SDS011;52812;48.960;9.108;2024-01-06T03:43:43;9.27;;;6.30;;
3085;SDS011;52812;48.960;9.108;2024-01-06T03:46:09;10.27;;;6.60;;
3085;SDS011;52812;48.960;9.108;2024-01-06T03:48:35;13.40;;;8.93;;
3085;SDS011;52812;48.960;9.108;2024-01-06T03:51:01;10.30;;;8.00;;
3085;SDS011;52812;48.960;9.108;2024-01-06T03:53:27;11.30;;;7.70;;
3085;SDS011;52812;48.960;9.108;2024-01-06T03:55:53;11.23;;;6.60;;
3085;SDS011;52812;48.960;9.108;2024-01-06T03:58:18;14.73;;;8.00;;
3085;SDS011;52812;48.960;9.108;2024-01-06T04:00:44;13.67;;;9.10;;
3085;SDS011;52812;48.960;9.108;2024-01-06T04:03:09;11.23;;;8.47;;
3085;SDS011;52812;48.960;9.108;2024-01-06T04:05:35;13.37;;;8.90;;
3085;SDS011;52812;48.960;9.108;2024-01-06T04:08:01;14.07;;;8.63;;
3085;SDS011;52812;48.960;9.108;2024-01-06T04:10:26;10.90;;;7.80;;
3085;SDS011;52812;48.960;9.108;2024-01-06T04:12:52;13.07;;;7.63;;
3085;SDS011;52812;48.960;9.108;2024-01-06T04:15:17;9.10;;;6.73;;
3085;SDS011;52812;48.960;9.108;2024-01-06T04:17:48;8.23;;;6.10;;
3085;SDS011;52812;48.960;9.108;2024-01-06T04:20:14;10.87;;;7.83;;
3085;SDS011;52812;48.960;9.108;2024-01-06T04:22:40;10.63;;;8.10;;
3085;SDS011;52812;48.960;9.108;2024-01-06T04:25:05;12.40;;;7.83;;
3085;SDS011;52812;48.960;9.108;2024-01-06T04:27:31;13.43;;;7.20;;
3085;SDS011;52812;48.960;9.108;2024-01-06T04:29:59;9.70;;;7.30;;
3085;SDS011;52812;48.960;9.108;2024-01-06T04:32:24;11.57;;;7.40;;
3085;SDS011;52812;48.960;9.108;2024-01-06T04:34:50;9.70;;;7.40;;
3085;SDS011;52812;48.960;9.108;2024-01-06T04:37:16;11.47;;;7.40;;
3085;SDS011;52812;48.960;9.108;2024-01-06T04:39:41;13.03;;;8.20;;
3085;SDS011;52812;48.960;9.108;2024-01-06T04:42:07;12.70;;;7.90;;
3085;SDS011;52812;48.960;9.108;2024-01-06T04:44:32;10.80;;;6.73;;
3085;SDS011;52812;48.960;9.108;2024-01-06T04:46:58;11.23;;;7.20;;
3085;SDS011;52812;48.960;9.108;2024-01-06T04:49:23;11.30;;;7.03;;
3085;SDS011;52812;48.960;9.108;2024-01-06T04:51:49;11.17;;;8.30;;
3085;SDS011;52812;48.960;9.108;2024-01-06T04:54:15;13.20;;;9.00;;
3085;SDS011;52812;48.960;9.108;2024-01-06T04:56:40;12.80;;;8.90;;
3085;SDS011;52812;48.960;9.108;2024-01-06T04:59:06;13.20;;;6.83;;
3085;SDS011;52812;48.960;9.108;2024-01-06T05:01:31;10.77;;;5.97;;
3085;SDS011;52812;48.960;9.108;2024-01-06T05:03:58;11.03;;;5.63;;
3085;SDS011;52812;48.960;9.108;2024-01-06T05:06:24;11.23;;;5.00;;
3085;SDS011;52812;48.960;9.108;2024-01-06T05:08:50;11.07;;;5.30;;
3085;SDS011;52812;48.960;9.108;2024-01-06T05:11:15;6.40;;;4.93;;
3085;SDS011;52812;48.960;9.108;2024-01-06T05:13:41;7.10;;;4.13;;
3085;SDS011;52812;48.960;9.108;2024-01-06T05:16:07;7.17;;;4.20;;
3085;SDS011;52812;48.960;9.108;2024-01-06T05:18:34;7.00;;;4.80;;
3085;SDS011;52812;48.960;9.108;2024-01-06T05:21:00;5.87;;;4.70;;
3085;SDS011;52812;48.960;9.108;2024-01-06T05:23:26;5.70;;;4.33;;
3085;SDS011;52812;48.960;9.108;2024-01-06T05:25:52;8.23;;;4.10;;
3085;SDS011;52812;48.960;9.108;2024-01-06T05:28:18;6.77;;;4.37;;
3085;SDS011;52812;48.960;9.108;2024-01-06T05:30:44;7.03;;;4.20;;
3085;SDS011;52812;48.960;9.108;2024-01-06T05:33:10;5.50;;;3.73;;
3085;SDS011;52812;48.960;9.108;2024-01-06T05:35:37;4.87;;;3.83;;
3085;SDS011;52812;48.960;9.108;2024-01-06T05:38:03;10.60;;;5.57;;
3085;SDS011;52812;48.960;9.108;2024-01-06T05:40:29;7.07;;;4.63;;
3085;SDS011;52812;48.960;9.108;2024-01-06T05:42:54;5.90;;;4.47;;
3085;SDS011;52812;48.960;9.108;2024-01-06T05:45:21;7.03;;;4.30;;
3085;SDS011;52812;48.960;9.108;2024-01-06T05:47:47;7.60;;;4.63;;
3085;SDS011;52812;48.960;9.108;2024-01-06T05:50:14;9.57;;;5.33;;
3085;SDS011;52812;48.960;9.108;2024-01-06T05:52:41;8.20;;;4.90;;
3085;SDS011;52812;48.960;9.108;2024-01-06T05:55:07;6.77;;;4.60;;
3085;SDS011;52812;48.960;9.108;2024-01-06T05:57:32;7.93;;;4.57;;
3085;SDS011;52812;48.960;9.108;2024-01-06T05:59:59;7.13;;;4.73;;
3085;SDS011;52812;48.960;9.108;2024-01-06T06:02:24;10.60;;;4.70;;
3085;SDS011;52812;48.960;9.108;2024-01-06T06:04:51;7.20;;;4.53;;
3085;SDS011;52812;48.960;9.108;2024-01-06T06:07:17;8.07;;;4.30;;
3085;SDS011;52812;48.960;9.108;2024-01-06T06:09:43;5.97;;;4.50;;
3085;SDS011;52812;48.960;9.108;2024-01-06T06:12:12;6.63;;;4.30;;
3085;SDS011;52812;48.960;9.108;2024-01-06T06:14:38;8.50;;;4.10;;
3085;SDS011;52812;48.960;9.108;2024-01-06T06:17:04;6.33;;;4.23;;
3085;SDS011;52812;48.960;9.108;2024-01-06T06:19:29;6.73;;;4.33;;
3085;SDS011;52812;48.960;9.108;2024-01-06T06:21:56;7.27;;;4.03;;
3085;SDS011;52812;48.960;9.108;2024-01-06T06:24:21;5.77;;;4.33;;
3085;SDS011;52812;48.960;9.108;2024-01-06T06:26:47;8.50;;;5.60;;
3085;SDS011;52812;48.960;9.108;2024-01-06T06:29:13;7.53;;;5.40;;
3085;SDS011;52812;48.960;9.108;2024-01-06T06:31:39;6.40;;;4.50;;
3085;SDS011;52812;48.960;9.108;2024-01-06T06:34:04;5.43;;;4.10;;
3085;SDS011;52812;48.960;9.108;2024-01-06T06:36:30;5.63;;;3.87;;
3085;SDS011;52812;48.960;9.108;2024-01-06T06:38:55;6.30;;;3.70;;
3085;SDS011;52812;48.960;9.108;2024-01-06T06:41:23;5.50;;;4.40;;
3085;SDS011;52812;48.960;9.108;2024-01-06T06:43:49;9.07;;;6.90;;
3085;SDS011;52812;48.960;9.108;2024-01-06T06:46:15;9.93;;;6.93;;
3085;SDS011;52812;48.960;9.108;2024-01-06T06:48:41;12.20;;;8.00;;
3085;SDS011;52812;48.960;9.108;2024-01-06T06:51:07;11.40;;;6.57;;
3085;SDS011;52812;48.960;9.108;2024-01-06T06:53:32;11.57;;;7.10;;
3085;SDS011;52812;48.960;9.108;2024-01-06T06:55:58;15.73;;;8.70;;
3085;SDS011;52812;48.960;9.108;2024-01-06T06:58:24;17.40;;;10.70;;
3085;SDS011;52812;48.960;9.108;2024-01-06T07:00:49;18.45;;;10.77;;
3085;SDS011;52812;48.960;9.108;2024-01-06T07:03:15;17.93;;;11.27;;
3085;SDS011;52812;48.960;9.108;2024-01-06T07:05:41;18.17;;;10.60;;
3085;SDS011;52812;48.960;9.108;2024-01-06T07:08:06;19.90;;;13.13;;
3085;SDS011;52812;48.960;9.108;2024-01-06T07:10:32;22.40;;;13.30;;
3085;SDS011;52812;48.960;9.108;2024-01-06T07:12:57;21.83;;;13.53;;
3085;SDS011;52812;48.960;9.108;2024-01-06T07:15:23;32.40;;;17.00;;
3085;SDS011;52812;48.960;9.108;2024-01-06T07:17:49;31.63;;;15.57;;
3085;SDS011;52812;48.960;9.108;2024-01-06T07:20:15;15.87;;;9.50;;
3085;SDS011;52812;48.960;9.108;2024-01-06T07:22:40;11.50;;;6.53;;
3085;SDS011;52812;48.960;9.108;2024-01-06T07:25:06;8.97;;;5.60;;
3085;SDS011;52812;48.960;9.108;2024-01-06T07:27:32;9.97;;;5.87;;
3085;SDS011;52812;48.960;9.108;2024-01-06T07:29:58;11.63;;;7.57;;
3085;SDS011;52812;48.960;9.108;2024-01-06T07:32:23;13.70;;;8.80;;
3085;SDS011;52812;48.960;9.108;2024-01-06T07:34:49;14.73;;;10.03;;
3085;SDS011;52812;48.960;9.108;2024-01-06T07:37:15;18.20;;;8.60;;
3085;SDS011;52812;48.960;9.108;2024-01-06T07:39:41;8.10;;;5.20;;
3085;SDS011;52812;48.960;9.108;2024-01-06T07:42:07;6.70;;;4.67;;
3085;SDS011;52812;48.960;9.108;2024-01-06T07:44:33;8.60;;;4.50;;
3085;SDS011;52812;48.960;9.108;2024-01-06T07:46:58;8.40;;;4.83;;
3085;SDS011;52812;48.960;9.108;2024-01-06T07:49:24;9.63;;;5.80;;
3085;SDS011;52812;48.960;9.108;2024-01-06T07:51:50;9.63;;;6.03;;
3085;SDS011;52812;48.960;9.108;2024-01-06T07:54:15;7.17;;;5.27;;
3085;SDS011;52812;48.960;9.108;2024-01-06T07:56:41;12.00;;;6.33;;
3085;SDS011;52812;48.960;9.108;2024-01-06T07:59:08;6.83;;;5.07;;
3085;SDS011;52812;48.960;9.108;2024-01-06T08:01:35;9.67;;;6.77;;
3085;SDS011;52812;48.960;9.108;2024-01-06T08:04:00;12.20;;;7.00;;
3085;SDS011;52812;48.960;9.108;2024-01-06T08:06:26;9.53;;;6.03;;
3085;SDS011;52812;48.960;9.108;2024-01-06T08:08:52;8.03;;;5.40;;
3085;SDS011;52812;48.960;9.108;2024-01-06T08:11:18;8.80;;;6.10;;
3085;SDS011;52812;48.960;9.108;2024-01-06T08:13:43;10.97;;;6.77;;
3085;SDS011;52812;48.960;9.108;2024-01-06T08:16:09;11.23;;;6.70;;
3085;SDS011;52812;48.960;9.108;2024-01-06T08:18:34;7.50;;;5.37;;
3085;SDS011;52812;48.960;9.108;2024-01-06T08:21:00;9.30;;;6.20;;
3085;SDS011;52812;48.960;9.108;2024-01-06T08:23:26;15.87;;;6.10;;
3085;SDS011;52812;48.960;9.108;2024-01-06T08:25:51;11.97;;;6.90;;
3085;SDS011;52812;48.960;9.108;2024-01-06T08:28:17;9.80;;;7.30;;
3085;SDS011;52812;48.960;9.108;2024-01-06T08:30:44;11.70;;;7.10;;
3085;SDS011;52812;48.960;9.108;2024-01-06T08:33:10;13.00;;;7.93;;
3085;SDS011;52812;48.960;9.108;2024-01-06T08:35:35;12.67;;;7.73;;
3085;SDS011;52812;48.960;9.108;2024-01-06T08:38:05;11.43;;;8.00;;
3085;SDS011;52812;48.960;9.108;2024-01-06T08:40:32;10.57;;;7.80;;
3085;SDS011;52812;48.960;9.108;2024-01-06T08:42:58;15.60;;;8.03;;
3085;SDS011;52812;48.960;9.108;2024-01-06T08:45:27;10.67;;;7.63;;
3085;SDS011;52812;48.960;9.108;2024-01-06T08:47:52;10.60;;;7.17;;
3085;SDS011;52812;48.960;9.108;2024-01-06T08:50:18;12.40;;;8.17;;
3085;SDS011;52812;48.960;9.108;2024-01-06T08:52:44;12.13;;;8.77;;
3085;SDS011;52812;48.960;9.108;2024-01-06T08:55:09;12.07;;;6.50;;
3085;SDS011;52812;48.960;9.108;2024-01-06T08:57:35;9.37;;;6.90;;
3085;SDS011;52812;48.960;9.108;2024-01-06T09:00:02;9.50;;;6.20;;
3085;SDS011;52812;48.960;9.108;2024-01-06T09:02:29;11.70;;;7.33;;
3085;SDS011;52812;48.960;9.108;2024-01-06T09:04:54;13.53;;;7.70;;
3085;SDS011;52812;48.960;9.108;2024-01-06T09:07:20;12.47;;;8.10;;
3085;SDS011;52812;48.960;9.108;2024-01-06T09:09:45;9.87;;;8.20;;
3085;SDS011;52812;48.960;9.108;2024-01-06T09:12:11;12.90;;;8.07;;
3085;SDS011;52812;48.960;9.108;2024-01-06T09:14:37;12.20;;;8.63;;
3085;SDS011;52812;48.960;9.108;2024-01-06T09:17:03;10.63;;;7.40;;
3085;SDS011;52812;48.960;9.108;2024-01-06T09:19:32;10.63;;;6.93;;
3085;SDS011;52812;48.960;9.108;2024-01-06T09:21:58;10.60;;;7.33;;
3085;SDS011;52812;48.960;9.108;2024-01-06T09:24:24;9.33;;;7.03;;
3085;SDS011;52812;48.960;9.108;2024-01-06T09:26:49;10.27;;;7.20;;
3085;SDS011;52812;48.960;9.108;2024-01-06T09:29:19;10.63;;;8.20;;
3085;SDS011;52812;48.960;9.108;2024-01-06T09:31:45;10.97;;;8.17;;
3085;SDS011;52812;48.960;9.108;2024-01-06T09:34:10;14.10;;;7.57;;
3085;SDS011;52812;48.960;9.108;2024-01-06T09:36:37;9.40;;;6.63;;
3085;SDS011;52812;48.960;9.108;2024-01-06T09:39:02;8.27;;;6.40;;
3085;SDS011;52812;48.960;9.108;2024-01-06T09:41:29;9.87;;;6.60;;
3085;SDS011;52812;48.960;9.108;2024-01-06T09:43:56;8.43;;;7.00;;
3085;SDS011;52812;48.960;9.108;2024-01-06T09:46:25;11.53;;;7.50;;
3085;SDS011;52812;48.960;9.108;2024-01-06T09:48:53;9.67;;;7.03;;
3085;SDS011;52812;48.960;9.108;2024-01-06T09:51:20;12.40;;;6.90;;
3085;SDS011;52812;48.960;9.108;2024-01-06T09:56:26;10.97;;;5.93;;
3085;SDS011;52812;48.960;9.108;2024-01-06T09:58:53;8.77;;;5.83;;
3085;SDS011;52812;48.960;9.108;2024-01-06T10:01:19;7.00;;;5.43;;
3085;SDS011;52812;48.960;9.108;2024-01-06T10:03:45;7.13;;;4.80;;
3085;SDS011;52812;48.960;9.108;2024-01-06T10:06:12;6.63;;;4.83;;
3085;SDS011;52812;48.960;9.108;2024-01-06T10:08:39;9.77;;;5.73;;
3085;SDS011;52812;48.960;9.108;2024-01-06T10:11:07;8.43;;;5.20;;
3085;SDS011;52812;48.960;9.108;2024-01-06T10:13:35;9.40;;;6.70;;
3085;SDS011;52812;48.960;9.108;2024-01-06T10:16:03;8.87;;;5.67;;
3085;SDS011;52812;48.960;9.108;2024-01-06T10:18:30;7.80;;;5.83;;
3085;SDS011;52812;48.960;9.108;2024-01-06T10:20:57;12.07;;;5.60;;
3085;SDS011;52812;48.960;9.108;2024-01-06T10:23:23;8.10;;;5.50;;
3085;SDS011;52812;48.960;9.108;2024-01-06T10:25:55;10.17;;;5.87;;
3085;SDS011;52812;48.960;9.108;2024-01-06T10:28:21;9.13;;;5.60;;
3085;SDS011;52812;48.960;9.108;2024-01-06T10:30:53;8.90;;;5.63;;
3085;SDS011;52812;48.960;9.108;2024-01-06T10:33:22;8.30;;;5.20;;
3085;SDS011;52812;48.960;9.108;2024-01-06T10:35:50;11.93;;;6.60;;
3085;SDS011;52812;48.960;9.108;2024-01-06T10:38:15;6.80;;;4.90;;
3085;SDS011;52812;48.960;9.108;2024-01-06T10:40:55;7.17;;;5.23;;
3085;SDS011;52812;48.960;9.108;2024-01-06T10:43:23;7.83;;;5.40;;
3085;SDS011;52812;48.960;9.108;2024-01-06T10:45:52;8.77;;;5.57;;
3085;SDS011;52812;48.960;9.108;2024-01-06T10:48:20;8.60;;;5.60;;
3085;SDS011;52812;48.960;9.108;2024-01-06T10:50:48;6.90;;;5.10;;
3085;SDS011;52812;48.960;9.108;2024-01-06T10:53:15;8.20;;;4.97;;
3085;SDS011;52812;48.960;9.108;2024-01-06T10:55:44;8.80;;;5.20;;
3085;SDS011;52812;48.960;9.108;2024-01-06T10:58:10;8.40;;;5.60;;
3085;SDS011;52812;48.960;9.108;2024-01-06T11:00:37;7.53;;;5.40;;
3085;SDS011;52812;48.960;9.108;2024-01-06T11:03:04;8.33;;;6.27;;
3085;SDS011;52812;48.960;9.108;2024-01-06T11:05:31;9.77;;;6.60;;
3085;SDS011;52812;48.960;9.108;2024-01-06T11:07:57;10.50;;;5.80;;
3085;SDS011;52812;48.960;9.108;2024-01-06T11:10:26;13.33;;;6.00;;
3085;SDS011;52812;48.960;9.108;2024-01-06T11:13:14;9.03;;;5.80;;
3085;SDS011;52812;48.960;9.108;2024-01-06T11:15:49;10.67;;;8.40;;
3085;SDS011;52812;48.960;9.108;2024-01-06T11:18:36;10.70;;;6.57;;
3085;SDS011;52812;48.960;9.108;2024-01-06T11:21:21;10.50;;;6.97;;
3085;SDS011;52812;48.960;9.108;2024-01-06T11:26:34;9.50;;;6.03;;
3085;SDS011;52812;48.960;9.108;2024-01-06T11:29:05;15.20;;;9.00;;
3085;SDS011;52812;48.960;9.108;2024-01-06T11:31:32;16.60;;;9.43;;
3085;SDS011;52812;48.960;9.108;2024-01-06T11:34:11;11.20;;;7.97;;
3085;SDS011;52812;48.960;9.108;2024-01-06T11:36:44;12.93;;;7.83;;
3085;SDS011;52812;48.960;9.108;2024-01-06T11:42:03;9.07;;;6.60;;
3085;SDS011;52812;48.960;9.108;2024-01-06T11:44:29;9.20;;;6.40;;
3085;SDS011;52812;48.960;9.108;2024-01-06T11:46:58;11.00;;;7.47;;
3085;SDS011;52812;48.960;9.108;2024-01-06T11:49:27;11.53;;;8.20;;
3085;SDS011;52812;48.960;9.108;2024-01-06T11:51:54;16.13;;;10.07;;
3085;SDS011;52812;48.960;9.108;2024-01-06T11:54:21;11.93;;;8.77;;
3085;SDS011;52812;48.960;9.108;2024-01-06T11:56:47;11.87;;;8.23;;
3085;SDS011;52812;48.960;9.108;2024-01-06T11:59:13;12.93;;;8.00;;
3085;SDS011;52812;48.960;9.108;2024-01-06T12:01:39;9.80;;;6.60;;
3085;SDS011;52812;48.960;9.108;2024-01-06T12:04:05;8.87;;;6.50;;
3085;SDS011;52812;48.960;9.108;2024-01-06T12:06:32;11.43;;;7.00;;
3085;SDS011;52812;48.960;9.108;2024-01-06T12:09:07;10.20;;;7.53;;
3085;SDS011;52812;48.960;9.108;2024-01-06T12:11:35;8.80;;;6.63;;
3085;SDS011;52812;48.960;9.108;2024-01-06T12:14:02;8.07;;;6.23;;
3085;SDS011;52812;48.960;9.108;2024-01-06T12:16:28;8.50;;;6.07;;
3085;SDS011;52812;48.960;9.108;2024-01-06T12:18:54;8.00;;;5.20;;
3085;SDS011;52812;48.960;9.108;2024-01-06T12:21:22;9.47;;;5.50;;
3085;SDS011;52812;48.960;9.108;2024-01-06T12:23:48;9.20;;;5.87;;
3085;SDS011;52812;48.960;9.108;2024-01-06T12:26:14;6.33;;;5.40;;
3085;SDS011;52812;48.960;9.108;2024-01-06T12:28:39;11.03;;;6.53;;
3085;SDS011;52812;48.960;9.108;2024-01-06T12:31:08;9.23;;;6.73;;
3085;SDS011;52812;48.960;9.108;2024-01-06T12:33:34;9.30;;;6.43;;
3085;SDS011;52812;48.960;9.108;2024-01-06T12:36:02;8.27;;;6.50;;
3085;SDS011;52812;48.960;9.108;2024-01-06T12:38:29;10.00;;;6.27;;
3085;SDS011;52812;48.960;9.108;2024-01-06T12:40:55;8.07;;;6.13;;
3085;SDS011;52812;48.960;9.108;2024-01-06T12:43:21;9.00;;;6.43;;
3085;SDS011;52812;48.960;9.108;2024-01-06T12:45:46;8.83;;;6.60;;
3085;SDS011;52812;48.960;9.108;2024-01-06T12:48:12;9.00;;;6.67;;
3085;SDS011;52812;48.960;9.108;2024-01-06T12:50:38;7.13;;;5.20;;
3085;SDS011;52812;48.960;9.108;2024-01-06T12:53:03;8.00;;;5.60;;
3085;SDS011;52812;48.960;9.108;2024-01-06T12:55:29;8.60;;;6.80;;
3085;SDS011;52812;48.960;9.108;2024-01-06T12:57:55;13.37;;;7.33;;
3085;SDS011;52812;48.960;9.108;2024-01-06T13:00:21;9.70;;;6.77;;
3085;SDS011;52812;48.960;9.108;2024-01-06T13:02:46;11.80;;;7.20;;
3085;SDS011;52812;48.960;9.108;2024-01-06T13:05:12;9.97;;;7.80;;
3085;SDS011;52812;48.960;9.108;2024-01-06T13:07:38;10.13;;;6.83;;
3085;SDS011;52812;48.960;9.108;2024-01-06T13:10:04;9.90;;;7.10;;
3085;SDS011;52812;48.960;9.108;2024-01-06T13:12:30;9.30;;;6.40;;
3085;SDS011;52812;48.960;9.108;2024-01-06T13:14:56;9.53;;;6.67;;
3085;SDS011;52812;48.960;9.108;2024-01-06T13:17:22;12.13;;;7.30;;
3085;SDS011;52812;48.960;9.108;2024-01-06T13:19:48;13.07;;;7.40;;
3085;SDS011;52812;48.960;9.108;2024-01-06T13:22:13;8.97;;;6.70;;
3085;SDS011;52812;48.960;9.108;2024-01-06T13:24:39;9.63;;;6.47;;
3085;SDS011;52812;48.960;9.108;2024-01-06T13:27:05;11.77;;;8.17;;
3085;SDS011;52812;48.960;9.108;2024-01-06T13:29:31;13.90;;;9.43;;
3085;SDS011;52812;48.960;9.108;2024-01-06T13:31:57;10.50;;;7.77;;
3085;SDS011;52812;48.960;9.108;2024-01-06T13:34:24;9.77;;;6.90;;
3085;SDS011;52812;48.960;9.108;2024-01-06T13:36:50;10.17;;;7.57;;
3085;SDS011;52812;48.960;9.108;2024-01-06T13:39:15;10.57;;;7.80;;
3085;SDS011;52812;48.960;9.108;2024-01-06T13:41:47;9.80;;;7.53;;
3085;SDS011;52812;48.960;9.108;2024-01-06T13:44:14;10.57;;;6.83;;
3085;SDS011;52812;48.960;9.108;2024-01-06T13:46:40;14.93;;;10.17;;
3085;SDS011;52812;48.960;9.108;2024-01-06T13:49:09;11.40;;;8.30;;
3085;SDS011;52812;48.960;9.108;2024-01-06T13:51:41;11.30;;;7.70;;
3085;SDS011;52812;48.960;9.108;2024-01-06T13:54:07;11.97;;;7.70;;
3085;SDS011;52812;48.960;9.108;2024-01-06T13:56:34;15.80;;;8.30;;
3085;SDS011;52812;48.960;9.108;2024-01-06T13:59:00;10.13;;;7.17;;
3085;SDS011;52812;48.960;9.108;2024-01-06T14:01:25;13.03;;;7.80;;
3085;SDS011;52812;48.960;9.108;2024-01-06T14:03:51;12.33;;;7.93;;
3085;SDS011;52812;48.960;9.108;2024-01-06T14:06:23;14.20;;;8.07;;
3085;SDS011;52812;48.960;9.108;2024-01-06T14:08:50;9.73;;;7.13;;
3085;SDS011;52812;48.960;9.108;2024-01-06T14:11:17;11.33;;;7.30;;
3085;SDS011;52812;48.960;9.108;2024-01-06T14:13:43;10.73;;;7.20;;
3085;SDS011;52812;48.960;9.108;2024-01-06T14:16:13;12.90;;;7.53;;
3085;SDS011;52812;48.960;9.108;2024-01-06T14:18:39;16.33;;;8.27;;
3085;SDS011;52812;48.960;9.108;2024-01-06T14:21:04;13.33;;;9.17;;
3085;SDS011;52812;48.960;9.108;2024-01-06T14:23:30;11.73;;;8.40;;
3085;SDS011;52812;48.960;9.108;2024-01-06T14:25:57;16.87;;;10.00;;
3085;SDS011;52812;48.960;9.108;2024-01-06T14:28:23;11.13;;;7.33;;
3085;SDS011;52812;48.960;9.108;2024-01-06T14:30:49;10.60;;;7.60;;
3085;SDS011;52812;48.960;9.108;2024-01-06T14:33:15;11.30;;;7.90;;
3085;SDS011;52812;48.960;9.108;2024-01-06T14:35:40;11.80;;;8.00;;
3085;SDS011;52812;48.960;9.108;2024-01-06T14:38:07;12.83;;;7.83;;
3085;SDS011;52812;48.960;9.108;2024-01-06T14:40:33;13.07;;;8.90;;
3085;SDS011;52812;48.960;9.108;2024-01-06T14:42:59;10.50;;;7.80;;
3085;SDS011;52812;48.960;9.108;2024-01-06T14:45:27;15.80;;;8.50;;
3085;SDS011;52812;48.960;9.108;2024-01-06T14:47:54;13.57;;;9.03;;
3085;SDS011;52812;48.960;9.108;2024-01-06T14:50:19;15.30;;;9.70;;
3085;SDS011;52812;48.960;9.108;2024-01-06T14:52:45;13.33;;;9.23;;
3085;SDS011;52812;48.960;9.108;2024-01-06T14:55:11;11.67;;;8.57;;
3085;SDS011;52812;48.960;9.108;2024-01-06T14:57:37;12.30;;;7.80;;